Time;durP1;ratioP1;P1;durP2;ratioP2;P2;SDS_P1;SDS_P2;PMS_P1;PMS_P2;Temp;Humidity;BMP_temperature;BMP_pressure;BME280_temperature;BME280_humidity;BME280_pressure;Samples;Min_cycle;Max_cycle;Signal;HPM_P1;HPM_P2
2020/12/16 00:01:53;;;;;;;21.73;19.63;;;;;;;;;;5003815;28;20531;-82
2020/12/16 00:04:19;;;;;;;24.97;19.77;;;;;;;;;;5005151;28;20415;-80
2020/12/16 00:06:45;;;;;;;22.77;20.37;;;;;;;;;;5005666;28;20474;-83
2020/12/16 00:09:12;;;;;;;20.83;18.70;;;;;;;;;;5004615;28;20441;-81
2020/12/16 00:11:38;;;;;;;23.30;19.97;;;;;;;;;;5005568;28;20464;-81
2020/12/16 00:14:04;;;;;;;23.77;21.33;;;;;;;;;;5004122;28;20821;-82
2020/12/16 00:16:32;;;;;;;26.70;21.03;;;;;;;;;;5003177;28;20510;-82
2020/12/16 00:18:58;;;;;;;23.47;18.67;;;;;;;;;;5019863;28;20412;-82
2020/12/16 00:21:25;;;;;;;22.83;20.50;;;;;;;;;;5020249;28;20436;-82
2020/12/16 00:23:53;;;;;;;25.70;20.90;;;;;;;;;;5019097;28;20813;-83
2020/12/16 00:26:20;;;;;;;20.67;18.50;;;;;;;;;;5017018;28;20451;-80
2020/12/16 00:28:46;;;;;;;25.47;20.20;;;;;;;;;;5003255;28;20412;-82
2020/12/16 00:31:13;;;;;;;24.73;20.80;;;;;;;;;;5002738;28;20436;-82
2020/12/16 00:33:39;;;;;;;22.60;20.33;;;;;;;;;;5001191;28;20412;-81
2020/12/16 00:36:05;;;;;;;21.43;19.13;;;;;;;;;;5002046;28;20459;-82
2020/12/16 00:38:31;;;;;;;22.27;20.00;;;;;;;;;;5003787;28;20408;-82
2020/12/16 00:40:58;;;;;;;22.07;19.33;;;;;;;;;;5019300;28;20439;-83
2020/12/16 00:43:24;;;;;;;22.27;19.73;;;;;;;;;;5001853;28;20408;-82
2020/12/16 00:45:50;;;;;;;24.60;19.97;;;;;;;;;;5002355;28;20414;-82
2020/12/16 00:48:20;;;;;;;23.57;20.97;;;;;;;;;;5003775;28;20475;-83
2020/12/16 00:50:46;;;;;;;22.70;17.77;;;;;;;;;;5000102;28;20491;-81
2020/12/16 00:53:16;;;;;;;24.20;18.90;;;;;;;;;;5003959;28;20406;-82
2020/12/16 00:55:49;;;;;;;20.20;16.70;;;;;;;;;;5005334;28;20459;-82
2020/12/16 00:58:21;;;;;;;21.33;19.10;;;;;;;;;;5002074;28;20413;-81
2020/12/16 01:00:53;;;;;;;20.47;18.40;;;;;;;;;;5001753;28;20448;-83
2020/12/16 01:03:23;;;;;;;24.93;20.40;;;;;;;;;;5003002;28;20448;-82
2020/12/16 01:05:49;;;;;;;21.70;19.50;;;;;;;;;;5002695;28;20451;-81
2020/12/16 01:08:15;;;;;;;26.17;21.13;;;;;;;;;;5003175;28;20954;-81
2020/12/16 01:10:46;;;;;;;20.20;17.50;;;;;;;;;;5003393;28;20814;-83
2020/12/16 01:13:14;;;;;;;21.20;19.00;;;;;;;;;;5003769;28;20806;-82
2020/12/16 01:15:43;;;;;;;23.07;20.30;;;;;;;;;;5002475;28;20397;-83
2020/12/16 01:18:10;;;;;;;22.63;20.23;;;;;;;;;;5004282;28;20417;-83
2020/12/16 01:20:42;;;;;;;23.30;20.00;;;;;;;;;;5004749;28;20539;-81
2020/12/16 01:23:29;;;;;;;23.87;20.93;;;;;;;;;;5003720;28;20412;-80
2020/12/16 01:25:55;;;;;;;25.43;22.73;;;;;;;;;;5006719;28;20431;-82
2020/12/16 01:28:22;;;;;;;23.57;21.17;;;;;;;;;;5004741;28;20426;-83
2020/12/16 01:30:56;;;;;;;23.73;21.07;;;;;;;;;;5002229;28;20431;-82
2020/12/16 01:33:24;;;;;;;23.50;21.00;;;;;;;;;;5017374;28;20416;-83
2020/12/16 01:36:00;;;;;;;30.70;23.07;;;;;;;;;;5001274;28;20491;-82
2020/12/16 01:38:27;;;;;;;22.70;20.50;;;;;;;;;;4983358;28;20457;-82
2020/12/16 01:41:05;;;;;;;22.10;19.80;;;;;;;;;;4983719;28;20881;-82
2020/12/16 01:43:42;;;;;;;23.43;18.60;;;;;;;;;;4988297;28;20429;-82
2020/12/16 01:46:15;;;;;;;21.13;18.33;;;;;;;;;;4966436;28;20410;-83
2020/12/16 01:48:42;;;;;;;20.70;18.57;;;;;;;;;;4988316;28;20418;-83
2020/12/16 01:51:15;;;;;;;23.23;20.73;;;;;;;;;;4988699;28;20808;-81
2020/12/16 01:53:46;;;;;;;21.00;18.03;;;;;;;;;;4985208;28;20405;-82
2020/12/16 01:56:14;;;;;;;21.53;19.33;;;;;;;;;;5001294;28;20506;-83
2020/12/16 01:58:56;;;;;;;29.07;20.70;;;;;;;;;;5001509;28;20470;-83
2020/12/16 02:01:45;;;;;;;;;;;;;;;;;;;;;
2020/12/16 02:04:17;;;;;;;21.37;19.33;;;;;;;;;;4988611;28;20467;-83
2020/12/16 02:06:54;;;;;;;21.93;19.57;;;;;;;;;;4988214;28;20454;-84
2020/12/16 02:09:27;;;;;;;21.10;18.90;;;;;;;;;;4989583;28;20756;-81
2020/12/16 02:12:33;;;;;;;;;;;;;;;;;;;;;
2020/12/16 02:15:12;;;;;;;21.33;19.03;;;;;;;;;;5004633;28;20412;-83
2020/12/16 02:18:05;;;;;;;23.30;20.73;;;;;;;;;;4996370;28;20443;-84
2020/12/16 02:20:43;;;;;;;23.10;20.07;;;;;;;;;;4987317;28;20464;-82
2020/12/16 02:23:18;;;;;;;21.30;19.10;;;;;;;;;;4988720;28;20436;-83
2020/12/16 02:25:46;;;;;;;24.30;19.10;;;;;;;;;;4987898;28;20429;-83
2020/12/16 02:28:18;;;;;;;21.47;19.03;;;;;;;;;;4988562;28;20447;-84
2020/12/16 02:30:57;;;;;;;19.83;17.90;;;;;;;;;;4993999;28;20436;-83
2020/12/16 02:33:50;;;;;;;23.67;21.13;;;;;;;;;;5010296;28;20528;-83
2020/12/16 02:36:27;;;;;;;20.87;18.57;;;;;;;;;;4992486;28;20421;-82
2020/12/16 02:39:04;;;;;;;23.53;17.97;;;;;;;;;;4995450;28;20476;-81
2020/12/16 02:42:04;;;;;;;23.93;20.37;;;;;;;;;;4989133;28;20457;-83
2020/12/16 02:44:31;;;;;;;29.37;20.50;;;;;;;;;;4987659;28;20973;-83
2020/12/16 02:47:06;;;;;;;26.63;20.10;;;;;;;;;;4989283;28;20465;-83
2020/12/16 02:49:36;;;;;;;22.70;18.93;;;;;;;;;;4990161;28;20416;-82
2020/12/16 02:52:03;;;;;;;23.33;20.43;;;;;;;;;;4988445;28;20429;-83
2020/12/16 02:54:39;;;;;;;;;;;;;;;;;;;;;
2020/12/16 02:57:27;;;;;;;22.10;19.73;;;;;;;;;;5007787;28;20923;-82
2020/12/16 02:59:59;;;;;;;24.33;19.43;;;;;;;;;;4989726;28;20417;-82
2020/12/16 03:02:45;;;;;;;26.60;20.80;;;;;;;;;;4993889;28;20420;-83
2020/12/16 03:05:26;;;;;;;23.30;19.40;;;;;;;;;;4992836;28;20409;-82
2020/12/16 03:07:55;;;;;;;22.57;20.17;;;;;;;;;;4997752;28;20456;-83
2020/12/16 03:10:21;;;;;;;23.83;21.53;;;;;;;;;;4994286;28;20439;-81
2020/12/16 03:12:49;;;;;;;23.47;21.17;;;;;;;;;;4987357;28;20422;-79
2020/12/16 03:15:15;;;;;;;26.90;19.90;;;;;;;;;;4989262;28;20411;-82
2020/12/16 03:17:42;;;;;;;26.07;22.13;;;;;;;;;;4988097;28;20456;-81
2020/12/16 03:20:09;;;;;;;26.07;21.50;;;;;;;;;;4988598;28;20516;-81
2020/12/16 03:22:35;;;;;;;27.87;21.87;;;;;;;;;;4992000;28;20418;-84
2020/12/16 03:25:32;;;;;;;25.70;21.90;;;;;;;;;;4990316;28;20407;-81
2020/12/16 03:28:09;;;;;;;27.10;20.80;;;;;;;;;;4990199;28;20463;-82
2020/12/16 03:30:50;;;;;;;31.37;22.67;;;;;;;;;;4988611;28;20443;-81
2020/12/16 03:33:34;;;;;;;27.13;22.87;;;;;;;;;;4989227;28;20401;-81
2020/12/16 03:36:20;;;;;;;26.30;21.50;;;;;;;;;;5005775;28;20403;-80
2020/12/16 03:38:48;;;;;;;26.83;21.40;;;;;;;;;;4991737;28;20422;-83
2020/12/16 03:41:17;;;;;;;26.60;22.77;;;;;;;;;;4987693;28;20424;-83
2020/12/16 03:43:47;;;;;;;27.43;22.17;;;;;;;;;;4988588;28;20438;-82
2020/12/16 03:46:14;;;;;;;28.90;23.70;;;;;;;;;;4988813;28;20889;-81
2020/12/16 03:48:42;;;;;;;23.80;21.47;;;;;;;;;;4987158;28;20416;-83
2020/12/16 03:51:10;;;;;;;24.30;20.13;;;;;;;;;;4988320;28;20431;-82
2020/12/16 03:53:41;;;;;;;28.00;24.17;;;;;;;;;;4987114;28;20498;-81
2020/12/16 03:56:32;;;;;;;25.60;21.83;;;;;;;;;;5016428;28;20520;-82
2020/12/16 03:59:16;;;;;;;25.83;20.90;;;;;;;;;;5025240;28;20400;-80
2020/12/16 04:02:21;;;;;;;26.70;23.63;;;;;;;;;;4965012;29;20431;-83
2020/12/16 04:05:08;;;;;;;31.83;23.20;;;;;;;;;;5004596;28;20440;-79
2020/12/16 04:07:34;;;;;;;26.73;21.97;;;;;;;;;;5006898;28;20483;-81
2020/12/16 04:10:13;;;;;;;27.53;21.97;;;;;;;;;;4988831;28;20443;-83
2020/12/16 04:12:39;;;;;;;25.47;22.70;;;;;;;;;;4986657;28;20721;-81
2020/12/16 04:15:07;;;;;;;30.17;24.23;;;;;;;;;;5003076;28;20408;-82
2020/12/16 04:17:33;;;;;;;30.70;19.93;;;;;;;;;;4986363;28;20765;-83
2020/12/16 04:20:09;;;;;;;27.47;23.43;;;;;;;;;;4987975;28;20500;-82
2020/12/16 04:22:42;;;;;;;30.70;23.47;;;;;;;;;;4989827;28;20473;-82
2020/12/16 04:25:08;;;;;;;30.03;25.50;;;;;;;;;;4995698;28;20392;-82
2020/12/16 04:27:38;;;;;;;31.03;22.90;;;;;;;;;;4988816;28;20459;-82
2020/12/16 04:30:05;;;;;;;30.87;25.73;;;;;;;;;;4986990;28;20442;-83
2020/12/16 04:32:35;;;;;;;34.07;23.50;;;;;;;;;;5005833;28;20391;-83
2020/12/16 04:35:02;;;;;;;28.67;24.00;;;;;;;;;;4986918;28;20477;-80
2020/12/16 04:37:29;;;;;;;30.00;24.13;;;;;;;;;;4986459;28;20970;-81
2020/12/16 04:40:00;;;;;;;24.60;21.97;;;;;;;;;;4988783;28;20456;-81
2020/12/16 04:42:27;;;;;;;33.23;24.93;;;;;;;;;;4992271;28;20486;-82
2020/12/16 04:44:54;;;;;;;32.27;23.07;;;;;;;;;;4992445;28;20420;-82
2020/12/16 04:47:28;;;;;;;28.40;22.30;;;;;;;;;;4994206;28;20507;-78
2020/12/16 04:50:05;;;;;;;32.77;24.40;;;;;;;;;;4998992;28;20439;-82
2020/12/16 04:52:39;;;;;;;26.13;22.97;;;;;;;;;;4996888;28;20400;-79
2020/12/16 04:55:16;;;;;;;25.00;21.20;;;;;;;;;;4991055;28;20403;-80
2020/12/16 04:58:00;;;;;;;30.33;23.10;;;;;;;;;;4990201;28;20793;-82
2020/12/16 05:00:27;;;;;;;29.70;23.40;;;;;;;;;;5036998;23;20481;-82
2020/12/16 05:03:10;;;;;;;33.93;25.60;;;;;;;;;;5028518;28;20422;-82
2020/12/16 05:06:12;;;;;;;28.77;23.93;;;;;;;;;;5008812;28;20806;-82
2020/12/16 05:08:38;;;;;;;29.60;24.40;;;;;;;;;;5023130;28;20415;-81
2020/12/16 05:11:17;;;;;;;;;;;;;;;;;;;;;
2020/12/16 05:14:08;;;;;;;32.63;23.77;;;;;;;;;;5005173;28;20406;-82
2020/12/16 05:16:54;;;;;;;31.80;24.70;;;;;;;;;;5008993;28;20429;-82
2020/12/16 05:19:33;;;;;;;31.97;23.53;;;;;;;;;;5007956;28;20420;-82
2020/12/16 05:22:15;;;;;;;31.47;23.80;;;;;;;;;;5025845;28;20465;-82
2020/12/16 05:24:56;;;;;;;28.07;24.13;;;;;;;;;;5006668;28;20886;-82
2020/12/16 05:27:34;;;;;;;35.90;23.63;;;;;;;;;;5023340;28;20441;-81
2020/12/16 05:30:05;;;;;;;34.77;24.90;;;;;;;;;;5023820;28;20458;-82
2020/12/16 05:32:32;;;;;;;31.00;24.67;;;;;;;;;;5007049;28;20452;-83
2020/12/16 05:35:42;;;;;;;26.70;22.83;;;;;;;;;;5023413;28;20514;-82
2020/12/16 05:38:09;;;;;;;34.60;25.13;;;;;;;;;;4990698;28;20396;-82
2020/12/16 05:40:41;;;;;;;30.63;24.60;;;;;;;;;;4988290;28;20455;-82
2020/12/16 05:43:21;;;;;;;31.67;26.00;;;;;;;;;;4974608;28;20416;-83
2020/12/16 05:45:51;;;;;;;27.20;24.30;;;;;;;;;;4975182;28;20461;-82
2020/12/16 05:48:17;;;;;;;29.33;24.93;;;;;;;;;;4990305;28;20459;-82
2020/12/16 05:50:54;;;;;;;37.43;27.63;;;;;;;;;;4990673;28;20918;-83
2020/12/16 05:53:20;;;;;;;36.80;28.50;;;;;;;;;;4990529;28;20408;-83
2020/12/16 05:55:54;;;;;;;34.10;26.60;;;;;;;;;;4992672;28;20409;-83
2020/12/16 05:58:31;;;;;;;30.50;24.23;;;;;;;;;;4998112;28;20416;-83
2020/12/16 06:01:16;;;;;;;31.97;23.90;;;;;;;;;;4982186;28;20519;-82
2020/12/16 06:03:55;;;;;;;;;;;;;;;;;;;;;
2020/12/16 06:06:23;;;;;;;33.03;24.33;;;;;;;;;;4989201;28;20496;-82
2020/12/16 06:08:49;;;;;;;32.53;25.43;;;;;;;;;;5002719;28;20395;-82
2020/12/16 06:11:16;;;;;;;33.50;24.63;;;;;;;;;;5011178;28;20438;-82
2020/12/16 06:13:46;;;;;;;35.20;27.77;;;;;;;;;;5011203;28;20515;-83
2020/12/16 06:16:13;;;;;;;31.87;24.87;;;;;;;;;;5010834;28;20500;-83
2020/12/16 06:18:50;;;;;;;34.30;26.50;;;;;;;;;;5010377;28;20446;-82
2020/12/16 06:21:19;;;;;;;32.70;26.20;;;;;;;;;;5011264;28;20461;-83
2020/12/16 06:23:45;;;;;;;42.17;26.47;;;;;;;;;;5012037;28;20419;-82
2020/12/16 06:26:29;;;;;;;;;;;;;;;;;;;;;
2020/12/16 06:28:59;;;;;;;33.77;23.47;;;;;;;;;;5028882;28;20796;-81
2020/12/16 06:31:32;;;;;;;32.50;24.00;;;;;;;;;;5013941;28;20460;-83
2020/12/16 06:34:05;;;;;;;28.57;21.63;;;;;;;;;;5017396;28;20411;-83
2020/12/16 06:36:32;;;;;;;30.27;24.57;;;;;;;;;;5036449;28;20470;-82
2020/12/16 06:38:58;;;;;;;29.00;25.77;;;;;;;;;;5036076;28;20420;-80
2020/12/16 06:41:27;;;;;;;29.33;24.17;;;;;;;;;;5019452;28;20439;-82
2020/12/16 06:43:58;;;;;;;34.40;26.10;;;;;;;;;;5018469;28;20467;-81
2020/12/16 06:46:30;;;;;;;34.43;24.40;;;;;;;;;;5018213;28;20404;-81
2020/12/16 06:48:59;;;;;;;34.93;25.83;;;;;;;;;;5016727;28;20423;-79
2020/12/16 06:51:36;;;;;;;;;;;;;;;;;;;;;
2020/12/16 06:54:14;;;;;;;33.77;26.50;;;;;;;;;;5012234;28;20414;-82
2020/12/16 06:56:41;;;;;;;33.10;24.10;;;;;;;;;;5022723;28;20420;-81
2020/12/16 06:59:13;;;;;;;32.40;25.50;;;;;;;;;;5022100;28;20420;-82
2020/12/16 07:01:56;;;;;;;40.17;26.33;;;;;;;;;;5017819;28;20428;-82
2020/12/16 07:04:34;;;;;;;28.20;25.23;;;;;;;;;;4994342;28;20425;-83
2020/12/16 07:07:01;;;;;;;32.27;23.37;;;;;;;;;;5027730;28;20457;-82
2020/12/16 07:09:36;;;;;;;30.73;25.63;;;;;;;;;;5028042;28;20790;-83
2020/12/16 07:12:05;;;;;;;29.87;22.37;;;;;;;;;;5022239;28;20423;-81
2020/12/16 07:14:50;;;;;;;30.47;23.50;;;;;;;;;;5028407;28;20464;-82
2020/12/16 07:17:18;;;;;;;29.73;24.03;;;;;;;;;;5026262;28;20421;-80
2020/12/16 07:19:47;;;;;;;32.83;24.87;;;;;;;;;;5027944;28;20418;-84
2020/12/16 07:22:28;;;;;;;29.87;20.50;;;;;;;;;;5028237;28;20434;-83
2020/12/16 07:24:56;;;;;;;26.93;22.20;;;;;;;;;;5044290;28;20917;-83
2020/12/16 07:27:25;;;;;;;32.10;22.80;;;;;;;;;;5013228;28;20453;-83
2020/12/16 07:29:56;;;;;;;29.53;21.60;;;;;;;;;;5030406;28;20416;-83
2020/12/16 07:32:31;;;;;;;25.13;22.27;;;;;;;;;;5011397;28;20434;-82
2020/12/16 07:34:59;;;;;;;27.70;19.73;;;;;;;;;;5012426;28;20797;-82
2020/12/16 07:37:30;;;;;;;21.90;18.77;;;;;;;;;;5027110;28;20506;-82
2020/12/16 07:40:31;;;;;;;24.63;21.70;;;;;;;;;;5027150;28;20394;-85
2020/12/16 07:43:06;;;;;;;28.80;22.97;;;;;;;;;;5016403;28;20508;-84
2020/12/16 07:46:14;;;;;;;;;;;;;;;;;;;;;
2020/12/16 07:49:51;;;;;;;;;;;;;;;;;;;;;
2020/12/16 07:52:56;;;;;;;23.87;21.37;;;;;;;;;;5041110;28;20478;-82
2020/12/16 07:55:31;;;;;;;28.30;23.67;;;;;;;;;;5012322;28;20428;-82
2020/12/16 07:58:31;;;;;;;28.23;21.57;;;;;;;;;;5029371;28;20466;-81
2020/12/16 08:01:18;;;;;;;29.07;21.50;;;;;;;;;;5011224;28;20461;-83
2020/12/16 08:04:05;;;;;;;25.67;20.17;;;;;;;;;;5023182;28;20411;-82
2020/12/16 08:06:57;;;;;;;23.83;19.43;;;;;;;;;;5012325;28;20458;-83
2020/12/16 08:10:11;;;;;;;31.90;21.20;;;;;;;;;;5026561;28;20431;-84
2020/12/16 08:18:12;;;;;;;28.50;23.53;;;;;;;;;;5169923;23;20490;-84
2020/12/16 08:21:19;;;;;;;;;;;;;;;;;;;;;
2020/12/16 08:23:52;;;;;;;29.77;23.00;;;;;;;;;;4989726;28;20403;-82
2020/12/16 08:26:52;;;;;;;;;;;;;;;;;;;;;
2020/12/16 08:29:55;;;;;;;;;;;;;;;;;;;;;
2020/12/16 08:36:54;;;;;;;;;;;;;;;;;;;;;
2020/12/16 08:48:01;;;;;;;29.37;25.27;;;;;;;;;;4879522;29;20479;-85
2020/12/16 09:30:44;;;;;;;33.13;23.80;;;;;;;;;;5001553;23;20485;-79
2020/12/16 09:33:15;;;;;;;31.90;24.07;;;;;;;;;;5020651;28;20395;-83
2020/12/16 09:39:10;;;;;;;38.47;26.80;;;;;;;;;;4968248;29;20456;-84
2020/12/16 09:41:50;;;;;;;33.80;26.27;;;;;;;;;;4990105;23;20514;-83
2020/12/16 09:44:30;;;;;;;28.80;25.70;;;;;;;;;;4983599;28;20427;-82
2020/12/16 09:47:13;;;;;;;28.33;24.93;;;;;;;;;;4983517;28;20459;-81
2020/12/16 09:49:42;;;;;;;27.57;23.90;;;;;;;;;;5000502;28;20436;-83
2020/12/16 09:52:37;;;;;;;27.47;24.57;;;;;;;;;;4968573;28;20441;-84
2020/12/16 09:55:49;;;;;;;30.50;23.47;;;;;;;;;;4979921;28;20397;-81
2020/12/16 10:02:10;;;;;;;33.23;29.67;;;;;;;;;;4928913;29;20441;-83
2020/12/16 10:08:24;;;;;;;;;;;;;;;;;;;;;
2020/12/16 10:23:16;;;;;;;57.07;49.80;;;;;;;;;;5286111;23;20490;-84
2020/12/16 10:25:49;;;;;;;51.60;46.00;;;;;;;;;;5006748;28;20403;-84
2020/12/16 10:28:22;;;;;;;47.10;40.50;;;;;;;;;;5007805;28;20465;-84
2020/12/16 10:30:52;;;;;;;42.10;34.83;;;;;;;;;;5019133;28;20424;-83
2020/12/16 10:33:21;;;;;;;41.03;30.53;;;;;;;;;;5005926;28;20412;-83
2020/12/16 10:39:36;;;;;;;;;;;;;;;;;;;;;
2020/12/16 10:53:26;;;;;;;;;;;;;;;;;;;;;
2020/12/16 11:34:34;;;;;;;;;;;;;;;;;;;;;
2020/12/16 11:37:42;;;;;;;;;;;;;;;;;;;;;
2020/12/16 11:41:05;;;;;;;;;;;;;;;;;;;;;
2020/12/16 11:44:19;;;;;;;22.37;19.87;;;;;;;;;;5003873;28;20423;-84
2020/12/16 11:46:51;;;;;;;22.37;20.07;;;;;;;;;;5033843;23;20532;-83
2020/12/16 11:49:18;;;;;;;28.20;23.17;;;;;;;;;;5006637;28;20425;-83
2020/12/16 11:51:45;;;;;;;28.63;22.33;;;;;;;;;;5022069;28;20407;-84
2020/12/16 11:54:11;;;;;;;26.90;23.50;;;;;;;;;;5006512;28;20461;-83
2020/12/16 11:56:48;;;;;;;;;;;;;;;;;;;;;
2020/12/16 11:59:14;;;;;;;28.00;23.50;;;;;;;;;;5024720;28;20390;-82
2020/12/16 12:01:42;;;;;;;31.40;25.50;;;;;;;;;;5006714;28;20411;-83
2020/12/16 12:04:09;;;;;;;25.20;21.80;;;;;;;;;;5007059;28;20434;-83
2020/12/16 12:06:36;;;;;;;23.07;18.57;;;;;;;;;;5024660;28;20415;-85
2020/12/16 12:09:04;;;;;;;22.33;20.03;;;;;;;;;;5024028;28;20423;-84
2020/12/16 12:11:31;;;;;;;21.30;19.07;;;;;;;;;;4989748;28;20485;-84
2020/12/16 12:13:57;;;;;;;19.30;16.70;;;;;;;;;;4990746;28;20419;-84
2020/12/16 12:16:23;;;;;;;18.97;17.03;;;;;;;;;;5024076;28;20454;-84
2020/12/16 12:18:50;;;;;;;28.10;25.17;;;;;;;;;;5024579;28;20514;-84
2020/12/16 12:21:17;;;;;;;27.07;23.53;;;;;;;;;;5024248;28;20423;-83
2020/12/16 12:23:46;;;;;;;26.00;23.30;;;;;;;;;;5025034;28;20426;-84
2020/12/16 12:26:13;;;;;;;26.87;19.20;;;;;;;;;;5007384;28;20439;-84
2020/12/16 12:28:39;;;;;;;22.10;18.10;;;;;;;;;;5026688;28;20469;-84
2020/12/16 12:31:08;;;;;;;26.50;18.33;;;;;;;;;;5026687;28;20575;-84
2020/12/16 12:33:35;;;;;;;22.13;19.70;;;;;;;;;;5007930;28;20442;-84
2020/12/16 12:36:04;;;;;;;25.03;19.23;;;;;;;;;;4988104;28;20450;-83
2020/12/16 12:38:31;;;;;;;32.33;22.20;;;;;;;;;;4987743;28;20428;-84
2020/12/16 12:40:58;;;;;;;27.53;22.13;;;;;;;;;;5004278;28;20427;-83
2020/12/16 12:43:24;;;;;;;22.37;19.97;;;;;;;;;;5005222;28;20414;-83
2020/12/16 12:45:50;;;;;;;31.80;21.30;;;;;;;;;;5020787;28;20434;-83
2020/12/16 12:48:17;;;;;;;24.80;20.83;;;;;;;;;;5003952;28;20451;-83
2020/12/16 12:50:46;;;;;;;28.90;21.90;;;;;;;;;;5003797;28;20419;-83
2020/12/16 12:53:12;;;;;;;28.97;21.00;;;;;;;;;;5004894;28;20437;-82
2020/12/16 12:55:38;;;;;;;28.70;22.07;;;;;;;;;;5021695;28;20744;-82
2020/12/16 12:58:06;;;;;;;31.60;23.10;;;;;;;;;;5004392;28;20438;-82
2020/12/16 13:00:32;;;;;;;23.67;20.43;;;;;;;;;;5003976;28;20429;-81
2020/12/16 13:02:59;;;;;;;28.90;21.80;;;;;;;;;;5003314;28;20438;-83
2020/12/16 13:05:25;;;;;;;25.27;21.20;;;;;;;;;;5003173;28;20468;-82
2020/12/16 13:07:52;;;;;;;28.57;20.77;;;;;;;;;;5030987;28;20463;-82
2020/12/16 13:10:18;;;;;;;21.30;18.60;;;;;;;;;;5022666;28;20407;-84
2020/12/16 13:12:44;;;;;;;23.87;19.90;;;;;;;;;;5022623;28;20453;-83
2020/12/16 13:15:11;;;;;;;24.10;21.50;;;;;;;;;;5024825;28;20415;-83
2020/12/16 13:17:37;;;;;;;24.63;20.43;;;;;;;;;;5015597;28;20430;-83
2020/12/16 13:20:26;;;;;;;29.20;21.17;;;;;;;;;;5019816;28;20491;-82
2020/12/16 13:22:53;;;;;;;26.97;20.17;;;;;;;;;;5003171;28;20430;-83
2020/12/16 13:25:19;;;;;;;22.63;19.80;;;;;;;;;;5028109;28;20474;-83
2020/12/16 13:27:45;;;;;;;23.27;20.40;;;;;;;;;;5004347;28;20466;-83
2020/12/16 13:30:12;;;;;;;21.50;19.07;;;;;;;;;;5003202;28;20422;-82
2020/12/16 13:32:38;;;;;;;23.37;20.50;;;;;;;;;;5019957;28;20475;-83
2020/12/16 13:35:04;;;;;;;25.20;20.23;;;;;;;;;;5022060;28;20816;-83
2020/12/16 13:37:31;;;;;;;29.50;21.40;;;;;;;;;;5022904;28;20792;-83
2020/12/16 13:39:57;;;;;;;26.70;22.20;;;;;;;;;;5008222;28;20522;-85
2020/12/16 13:42:24;;;;;;;27.57;20.90;;;;;;;;;;5000328;28;20466;-83
2020/12/16 13:44:50;;;;;;;23.77;20.90;;;;;;;;;;5000032;28;20431;-84
2020/12/16 13:47:16;;;;;;;27.33;23.10;;;;;;;;;;5005467;28;20466;-84
2020/12/16 13:49:56;;;;;;;21.70;18.20;;;;;;;;;;5023966;28;20445;-82
2020/12/16 13:52:22;;;;;;;30.33;20.77;;;;;;;;;;5024359;28;20441;-82
2020/12/16 13:54:48;;;;;;;22.00;19.70;;;;;;;;;;5024279;28;20426;-84
2020/12/16 13:57:15;;;;;;;27.07;21.57;;;;;;;;;;5024590;28;20422;-83
2020/12/16 13:59:41;;;;;;;27.23;20.93;;;;;;;;;;5011652;28;20494;-81
2020/12/16 14:02:10;;;;;;;23.63;21.13;;;;;;;;;;5010305;28;20415;-83
2020/12/16 14:04:36;;;;;;;35.50;23.67;;;;;;;;;;5028990;28;20431;-82
2020/12/16 14:07:03;;;;;;;27.07;21.70;;;;;;;;;;5027941;28;20501;-80
2020/12/16 14:09:29;;;;;;;29.47;21.63;;;;;;;;;;5025627;28;20486;-82
2020/12/16 14:11:56;;;;;;;22.90;19.17;;;;;;;;;;4994790;28;20513;-83
2020/12/16 14:14:27;;;;;;;31.47;24.00;;;;;;;;;;5010453;28;20433;-82
2020/12/16 14:17:00;;;;;;;30.73;21.33;;;;;;;;;;5028000;28;20437;-83
2020/12/16 14:19:30;;;;;;;27.53;19.80;;;;;;;;;;5009825;28;20441;-83
2020/12/16 14:21:57;;;;;;;28.47;19.20;;;;;;;;;;5029492;28;20410;-82
2020/12/16 14:24:26;;;;;;;28.20;21.33;;;;;;;;;;5029571;28;20443;-84
2020/12/16 14:26:55;;;;;;;35.00;21.97;;;;;;;;;;5029756;28;20489;-83
2020/12/16 14:29:28;;;;;;;32.93;23.93;;;;;;;;;;5029928;28;20425;-83
2020/12/16 14:31:54;;;;;;;48.00;34.33;;;;;;;;;;4995162;28;20432;-83
2020/12/16 14:34:21;;;;;;;41.27;29.47;;;;;;;;;;5012077;28;20466;-83
2020/12/16 14:36:55;;;;;;;27.40;23.07;;;;;;;;;;5011614;28;20450;-84
2020/12/16 14:39:22;;;;;;;32.37;21.30;;;;;;;;;;5027148;28;20401;-82
2020/12/16 14:41:56;;;;;;;30.80;22.57;;;;;;;;;;4996062;28;20889;-83
2020/12/16 14:44:22;;;;;;;25.70;21.00;;;;;;;;;;5012502;28;20486;-85
2020/12/16 14:46:59;;;;;;;36.00;24.30;;;;;;;;;;5014619;28;20547;-83
2020/12/16 14:49:26;;;;;;;31.87;24.63;;;;;;;;;;5011352;28;20427;-82
2020/12/16 14:51:56;;;;;;;30.07;25.93;;;;;;;;;;5011485;28;20486;-83
2020/12/16 14:54:25;;;;;;;23.37;20.60;;;;;;;;;;5011498;28;20491;-83
2020/12/16 14:57:15;;;;;;;35.13;24.10;;;;;;;;;;5012111;28;20426;-83
2020/12/16 14:59:44;;;;;;;39.07;27.77;;;;;;;;;;5010539;28;20417;-83
2020/12/16 15:02:16;;;;;;;33.00;20.00;;;;;;;;;;4997474;28;20425;-83
2020/12/16 15:04:43;;;;;;;31.67;24.73;;;;;;;;;;5011828;28;20494;-83
2020/12/16 15:07:10;;;;;;;29.70;21.70;;;;;;;;;;5010948;28;20473;-82
2020/12/16 15:09:39;;;;;;;25.43;22.00;;;;;;;;;;5027211;28;20402;-83
2020/12/16 15:12:12;;;;;;;27.10;22.37;;;;;;;;;;5011452;28;20408;-83
2020/12/16 15:14:39;;;;;;;28.73;24.33;;;;;;;;;;5012317;28;20419;-81
2020/12/16 15:17:06;;;;;;;28.47;23.00;;;;;;;;;;5029659;28;20436;-83
2020/12/16 15:19:33;;;;;;;33.37;27.93;;;;;;;;;;5012846;28;20419;-82
2020/12/16 15:22:00;;;;;;;28.07;23.10;;;;;;;;;;5013669;28;20738;-83
2020/12/16 15:24:27;;;;;;;26.10;21.30;;;;;;;;;;5032113;28;20399;-83
2020/12/16 15:26:59;;;;;;;28.93;21.90;;;;;;;;;;4993330;28;20466;-83
2020/12/16 15:29:38;;;;;;;28.47;23.80;;;;;;;;;;4993103;28;20427;-83
2020/12/16 15:32:31;;;;;;;24.57;19.27;;;;;;;;;;5027822;28;20860;-82
2020/12/16 15:34:57;;;;;;;26.23;22.57;;;;;;;;;;5009762;28;20434;-83
2020/12/16 15:37:24;;;;;;;55.13;43.60;;;;;;;;;;5009709;28;20517;-82
2020/12/16 15:40:00;;;;;;;;;;;;;;;;;;;;;
2020/12/16 15:42:32;;;;;;;28.20;22.03;;;;;;;;;;5009376;28;20414;-82
2020/12/16 15:44:58;;;;;;;25.13;20.87;;;;;;;;;;5007294;28;20425;-83
2020/12/16 15:47:25;;;;;;;32.70;23.03;;;;;;;;;;5008036;28;20574;-81
2020/12/16 15:49:52;;;;;;;30.60;21.70;;;;;;;;;;5003831;28;20410;-83
2020/12/16 15:52:21;;;;;;;23.10;20.43;;;;;;;;;;5007425;28;20419;-83
2020/12/16 15:54:48;;;;;;;26.37;22.60;;;;;;;;;;4993541;28;20420;-83
2020/12/16 15:57:17;;;;;;;25.23;19.47;;;;;;;;;;5012583;28;20458;-80
2020/12/16 15:59:43;;;;;;;22.43;19.07;;;;;;;;;;5012445;28;20415;-82
2020/12/16 16:02:15;;;;;;;26.60;18.20;;;;;;;;;;5019177;28;20530;-83
2020/12/16 16:04:45;;;;;;;31.93;21.77;;;;;;;;;;5018806;28;20395;-83
2020/12/16 16:07:12;;;;;;;24.20;19.00;;;;;;;;;;5036397;28;20497;-82
2020/12/16 16:09:38;;;;;;;26.10;19.50;;;;;;;;;;4992728;28;20407;-82
2020/12/16 16:12:05;;;;;;;36.10;23.17;;;;;;;;;;5024619;28;20415;-81
2020/12/16 16:14:42;;;;;;;23.33;18.73;;;;;;;;;;5009304;28;20955;-84
2020/12/16 16:17:19;;;;;;;;;;;;;;;;;;;;;
2020/12/16 16:19:45;;;;;;;28.97;21.80;;;;;;;;;;5024408;28;20391;-81
2020/12/16 16:22:33;;;;;;;28.23;22.20;;;;;;;;;;5027875;28;20410;-84
2020/12/16 16:25:02;;;;;;;27.20;18.57;;;;;;;;;;5016068;28;20438;-83
2020/12/16 16:27:29;;;;;;;29.37;18.03;;;;;;;;;;5033011;28;20572;-82
2020/12/16 16:29:58;;;;;;;19.17;17.17;;;;;;;;;;4995400;28;20447;-83
2020/12/16 16:32:24;;;;;;;28.33;21.37;;;;;;;;;;5012318;28;20506;-83
2020/12/16 16:34:54;;;;;;;31.37;24.00;;;;;;;;;;5016253;28;20417;-82
2020/12/16 16:37:39;;;;;;;33.13;24.87;;;;;;;;;;5024675;28;20941;-82
2020/12/16 16:40:17;;;;;;;27.07;21.80;;;;;;;;;;5006627;28;20444;-82
2020/12/16 16:42:49;;;;;;;28.00;15.40;;;;;;;;;;5024670;28;20401;-82
2020/12/16 16:45:35;;;;;;;19.17;15.63;;;;;;;;;;5007936;28;20390;-84
2020/12/16 16:48:01;;;;;;;37.67;25.87;;;;;;;;;;5005641;28;20465;-83
2020/12/16 16:50:28;;;;;;;23.27;19.87;;;;;;;;;;5023535;28;20465;-83
2020/12/16 16:52:54;;;;;;;23.40;20.57;;;;;;;;;;5005502;28;20414;-82
2020/12/16 16:55:20;;;;;;;20.03;16.70;;;;;;;;;;5005003;28;20417;-83
2020/12/16 16:57:51;;;;;;;21.00;17.20;;;;;;;;;;5006187;28;20446;-83
2020/12/16 17:00:19;;;;;;;32.60;28.80;;;;;;;;;;5006975;28;20841;-84
2020/12/16 17:02:49;;;;;;;27.93;20.37;;;;;;;;;;5006398;28;20857;-83
2020/12/16 17:05:24;;;;;;;24.73;18.27;;;;;;;;;;5004640;28;20426;-83
2020/12/16 17:07:50;;;;;;;27.80;19.37;;;;;;;;;;4988042;28;20470;-83
2020/12/16 17:10:37;;;;;;;25.30;18.47;;;;;;;;;;5005249;28;20407;-83
2020/12/16 17:13:13;;;;;;;24.90;18.87;;;;;;;;;;4986912;28;20415;-83
2020/12/16 17:15:40;;;;;;;30.80;21.37;;;;;;;;;;5022590;28;20409;-83
2020/12/16 17:18:12;;;;;;;26.97;20.53;;;;;;;;;;5023054;28;20419;-83
2020/12/16 17:20:51;;;;;;;33.03;23.17;;;;;;;;;;5006116;28;20418;-83
2020/12/16 17:23:28;;;;;;;33.00;25.13;;;;;;;;;;5007966;28;20414;-83
2020/12/16 17:26:16;;;;;;;41.83;26.83;;;;;;;;;;5023517;28;20461;-82
2020/12/16 17:28:48;;;;;;;40.97;24.33;;;;;;;;;;5005421;28;20494;-81
2020/12/16 17:31:28;;;;;;;32.57;23.00;;;;;;;;;;5003714;28;20411;-82